sensor_id;sensor_type;location;lat;lon;timestamp;P1;durP1;ratioP1;P2;durP2;ratioP2
19788;SDS011;10054;59.332;18.244;2023-09-12T00:01:18;18.67;;;15.23;;
19788;SDS011;10054;59.332;18.244;2023-09-12T00:03:47;20.87;;;16.30;;
19788;SDS011;10054;59.332;18.244;2023-09-12T00:06:17;18.53;;;15.53;;
19788;SDS011;10054;59.332;18.244;2023-09-12T00:08:46;19.23;;;15.77;;
19788;SDS011;10054;59.332;18.244;2023-09-12T00:11:15;29.37;;;15.50;;
19788;SDS011;10054;59.332;18.244;2023-09-12T00:13:44;24.43;;;16.70;;
19788;SDS011;10054;59.332;18.244;2023-09-12T00:16:13;27.37;;;16.43;;
19788;SDS011;10054;59.332;18.244;2023-09-12T00:18:41;20.20;;;15.20;;
19788;SDS011;10054;59.332;18.244;2023-09-12T00:21:10;25.37;;;15.33;;
19788;SDS011;10054;59.332;18.244;2023-09-12T00:23:39;26.20;;;15.98;;
19788;SDS011;10054;59.332;18.244;2023-09-12T00:26:08;19.75;;;15.55;;
19788;SDS011;10054;59.332;18.244;2023-09-12T00:28:37;23.90;;;15.97;;
19788;SDS011;10054;59.332;18.244;2023-09-12T00:31:07;26.57;;;14.87;;
19788;SDS011;10054;59.332;18.244;2023-09-12T00:33:35;37.67;;;15.37;;
19788;SDS011;10054;59.332;18.244;2023-09-12T00:36:04;29.80;;;16.40;;
19788;SDS011;10054;59.332;18.244;2023-09-12T00:38:33;29.32;;;15.60;;
19788;SDS011;10054;59.332;18.244;2023-09-12T00:41:02;30.93;;;15.23;;
19788;SDS011;10054;59.332;18.244;2023-09-12T00:43:30;20.37;;;14.93;;
19788;SDS011;10054;59.332;18.244;2023-09-12T00:46:00;33.13;;;15.65;;
19788;SDS011;10054;59.332;18.244;2023-09-12T00:48:29;34.92;;;16.15;;
19788;SDS011;10054;59.332;18.244;2023-09-12T00:50:58;48.17;;;16.17;;
19788;SDS011;10054;59.332;18.244;2023-09-12T00:53:27;43.90;;;15.87;;
19788;SDS011;10054;59.332;18.244;2023-09-12T00:55:57;17.60;;;15.27;;
19788;SDS011;10054;59.332;18.244;2023-09-12T00:58:26;20.67;;;14.50;;
19788;SDS011;10054;59.332;18.244;2023-09-12T01:00:56;27.97;;;14.57;;
19788;SDS011;10054;59.332;18.244;2023-09-12T01:03:25;19.80;;;14.43;;
19788;SDS011;10054;59.332;18.244;2023-09-12T01:05:54;54.77;;;13.97;;
19788;SDS011;10054;59.332;18.244;2023-09-12T01:08:25;15.40;;;13.57;;
19788;SDS011;10054;59.332;18.244;2023-09-12T01:10:55;34.90;;;13.70;;
19788;SDS011;10054;59.332;18.244;2023-09-12T01:13:26;30.23;;;13.47;;
19788;SDS011;10054;59.332;18.244;2023-09-12T01:15:55;23.32;;;13.93;;
19788;SDS011;10054;59.332;18.244;2023-09-12T01:18:24;17.10;;;13.70;;
19788;SDS011;10054;59.332;18.244;2023-09-12T01:21:02;59.97;;;13.67;;
19788;SDS011;10054;59.332;18.244;2023-09-12T01:23:37;32.48;;;13.20;;
19788;SDS011;10054;59.332;18.244;2023-09-12T01:28:55;36.27;;;12.67;;
19788;SDS011;10054;59.332;18.244;2023-09-12T01:31:25;80.97;;;12.55;;
19788;SDS011;10054;59.332;18.244;2023-09-12T01:33:56;42.23;;;12.03;;
19788;SDS011;10054;59.332;18.244;2023-09-12T01:36:25;75.57;;;11.73;;
19788;SDS011;10054;59.332;18.244;2023-09-12T01:38:54;14.07;;;10.67;;
19788;SDS011;10054;59.332;18.244;2023-09-12T01:41:23;13.17;;;11.00;;
19788;SDS011;10054;59.332;18.244;2023-09-12T01:43:52;28.67;;;11.17;;
19788;SDS011;10054;59.332;18.244;2023-09-12T01:46:22;35.07;;;11.17;;
19788;SDS011;10054;59.332;18.244;2023-09-12T01:48:53;29.33;;;10.63;;
19788;SDS011;10054;59.332;18.244;2023-09-12T01:51:23;18.27;;;10.27;;
19788;SDS011;10054;59.332;18.244;2023-09-12T01:53:53;15.93;;;10.13;;
19788;SDS011;10054;59.332;18.244;2023-09-12T01:56:23;29.07;;;9.90;;
19788;SDS011;10054;59.332;18.244;2023-09-12T01:58:53;10.93;;;10.03;;
19788;SDS011;10054;59.332;18.244;2023-09-12T02:01:22;45.05;;;10.95;;
19788;SDS011;10054;59.332;18.244;2023-09-12T02:03:52;33.33;;;9.70;;
19788;SDS011;10054;59.332;18.244;2023-09-12T02:06:21;14.67;;;10.20;;
19788;SDS011;10054;59.332;18.244;2023-09-12T02:08:50;12.57;;;9.27;;
19788;SDS011;10054;59.332;18.244;2023-09-12T02:11:19;12.57;;;9.43;;
19788;SDS011;10054;59.332;18.244;2023-09-12T02:13:47;15.53;;;8.65;;
19788;SDS011;10054;59.332;18.244;2023-09-12T02:16:16;11.38;;;8.10;;
19788;SDS011;10054;59.332;18.244;2023-09-12T02:18:44;12.58;;;8.40;;
19788;SDS011;10054;59.332;18.244;2023-09-12T02:21:13;23.47;;;7.92;;
19788;SDS011;10054;59.332;18.244;2023-09-12T02:23:42;16.17;;;8.07;;
19788;SDS011;10054;59.332;18.244;2023-09-12T02:26:12;33.90;;;9.23;;
19788;SDS011;10054;59.332;18.244;2023-09-12T02:28:40;8.90;;;8.00;;
19788;SDS011;10054;59.332;18.244;2023-09-12T02:31:12;9.17;;;8.30;;
19788;SDS011;10054;59.332;18.244;2023-09-12T02:33:41;9.57;;;7.87;;
19788;SDS011;10054;59.332;18.244;2023-09-12T02:36:10;29.50;;;8.77;;
19788;SDS011;10054;59.332;18.244;2023-09-12T02:38:39;13.30;;;8.35;;
19788;SDS011;10054;59.332;18.244;2023-09-12T02:41:07;52.85;;;9.00;;
19788;SDS011;10054;59.332;18.244;2023-09-12T02:43:36;22.37;;;8.48;;
19788;SDS011;10054;59.332;18.244;2023-09-12T02:46:05;8.58;;;7.87;;
19788;SDS011;10054;59.332;18.244;2023-09-12T02:48:34;13.13;;;8.18;;
19788;SDS011;10054;59.332;18.244;2023-09-12T02:51:02;29.70;;;8.63;;
19788;SDS011;10054;59.332;18.244;2023-09-12T02:53:31;10.67;;;8.60;;
19788;SDS011;10054;59.332;18.244;2023-09-12T02:56:00;14.50;;;8.30;;
19788;SDS011;10054;59.332;18.244;2023-09-12T02:58:29;8.53;;;7.72;;
19788;SDS011;10054;59.332;18.244;2023-09-12T03:00:58;10.53;;;8.33;;
19788;SDS011;10054;59.332;18.244;2023-09-12T03:03:28;9.20;;;8.30;;
19788;SDS011;10054;59.332;18.244;2023-09-12T03:05:57;20.13;;;8.40;;
19788;SDS011;10054;59.332;18.244;2023-09-12T03:08:27;9.30;;;8.37;;
19788;SDS011;10054;59.332;18.244;2023-09-12T03:10:56;8.80;;;7.93;;
19788;SDS011;10054;59.332;18.244;2023-09-12T03:13:25;50.52;;;9.05;;
19788;SDS011;10054;59.332;18.244;2023-09-12T03:15:54;19.77;;;8.47;;
19788;SDS011;10054;59.332;18.244;2023-09-12T03:18:23;9.87;;;7.97;;
19788;SDS011;10054;59.332;18.244;2023-09-12T03:20:52;12.03;;;8.43;;
19788;SDS011;10054;59.332;18.244;2023-09-12T03:23:21;43.37;;;9.13;;
19788;SDS011;10054;59.332;18.244;2023-09-12T03:25:51;66.28;;;9.28;;
19788;SDS011;10054;59.332;18.244;2023-09-12T03:28:20;33.67;;;8.48;;
19788;SDS011;10054;59.332;18.244;2023-09-12T03:30:50;23.43;;;8.33;;
19788;SDS011;10054;59.332;18.244;2023-09-12T03:33:19;11.87;;;8.27;;
19788;SDS011;10054;59.332;18.244;2023-09-12T03:35:48;8.63;;;7.77;;
19788;SDS011;10054;59.332;18.244;2023-09-12T03:38:17;15.20;;;7.67;;
19788;SDS011;10054;59.332;18.244;2023-09-12T03:40:46;32.13;;;8.13;;
19788;SDS011;10054;59.332;18.244;2023-09-12T03:43:15;8.33;;;7.63;;
19788;SDS011;10054;59.332;18.244;2023-09-12T03:45:43;12.73;;;8.07;;
19788;SDS011;10054;59.332;18.244;2023-09-12T03:48:12;17.10;;;7.80;;
19788;SDS011;10054;59.332;18.244;2023-09-12T03:50:41;14.40;;;8.20;;
19788;SDS011;10054;59.332;18.244;2023-09-12T03:53:10;14.47;;;8.23;;
19788;SDS011;10054;59.332;18.244;2023-09-12T03:55:40;8.70;;;7.90;;
19788;SDS011;10054;59.332;18.244;2023-09-12T03:58:10;8.48;;;7.72;;
19788;SDS011;10054;59.332;18.244;2023-09-12T04:00:39;24.27;;;8.87;;
19788;SDS011;10054;59.332;18.244;2023-09-12T04:03:08;44.63;;;8.37;;
19788;SDS011;10054;59.332;18.244;2023-09-12T04:05:37;8.93;;;8.05;;
19788;SDS011;10054;59.332;18.244;2023-09-12T04:08:05;23.90;;;8.33;;
19788;SDS011;10054;59.332;18.244;2023-09-12T04:10:34;17.60;;;7.63;;
19788;SDS011;10054;59.332;18.244;2023-09-12T04:13:03;25.13;;;7.47;;
19788;SDS011;10054;59.332;18.244;2023-09-12T04:15:32;16.23;;;7.93;;
19788;SDS011;10054;59.332;18.244;2023-09-12T04:18:01;24.87;;;7.70;;
19788;SDS011;10054;59.332;18.244;2023-09-12T04:20:30;26.03;;;7.80;;
19788;SDS011;10054;59.332;18.244;2023-09-12T04:23:05;61.47;;;8.13;;
19788;SDS011;10054;59.332;18.244;2023-09-12T04:25:31;8.60;;;7.60;;
19788;SDS011;10054;59.332;18.244;2023-09-12T04:28:00;38.53;;;8.03;;
19788;SDS011;10054;59.332;18.244;2023-09-12T04:30:30;36.43;;;7.57;;
19788;SDS011;10054;59.332;18.244;2023-09-12T04:32:59;8.13;;;7.40;;
19788;SDS011;10054;59.332;18.244;2023-09-12T04:35:27;8.17;;;7.43;;
19788;SDS011;10054;59.332;18.244;2023-09-12T04:37:56;12.53;;;8.60;;
19788;SDS011;10054;59.332;18.244;2023-09-12T04:40:25;17.57;;;6.77;;
19788;SDS011;10054;59.332;18.244;2023-09-12T04:42:54;24.77;;;6.85;;
19788;SDS011;10054;59.332;18.244;2023-09-12T04:45:23;83.90;;;8.03;;
19788;SDS011;10054;59.332;18.244;2023-09-12T04:47:52;8.20;;;7.50;;
19788;SDS011;10054;59.332;18.244;2023-09-12T04:50:20;163.77;;;9.20;;
19788;SDS011;10054;59.332;18.244;2023-09-12T04:52:49;7.83;;;7.10;;
19788;SDS011;10054;59.332;18.244;2023-09-12T04:55:18;113.33;;;8.40;;
19788;SDS011;10054;59.332;18.244;2023-09-12T04:57:46;82.90;;;8.20;;
19788;SDS011;10054;59.332;18.244;2023-09-12T05:00:15;10.20;;;6.30;;
19788;SDS011;10054;59.332;18.244;2023-09-12T05:02:45;7.27;;;6.60;;
19788;SDS011;10054;59.332;18.244;2023-09-12T05:05:14;7.33;;;6.60;;
19788;SDS011;10054;59.332;18.244;2023-09-12T05:07:43;7.57;;;6.93;;
19788;SDS011;10054;59.332;18.244;2023-09-12T05:10:12;8.43;;;6.53;;
19788;SDS011;10054;59.332;18.244;2023-09-12T05:12:41;47.43;;;8.10;;
19788;SDS011;10054;59.332;18.244;2023-09-12T05:15:10;57.70;;;7.67;;
19788;SDS011;10054;59.332;18.244;2023-09-12T05:17:39;52.93;;;7.33;;
19788;SDS011;10054;59.332;18.244;2023-09-12T05:20:08;8.67;;;6.70;;
19788;SDS011;10054;59.332;18.244;2023-09-12T05:22:37;7.73;;;7.03;;
19788;SDS011;10054;59.332;18.244;2023-09-12T05:25:07;22.03;;;7.40;;
19788;SDS011;10054;59.332;18.244;2023-09-12T05:27:36;12.20;;;7.37;;
19788;SDS011;10054;59.332;18.244;2023-09-12T05:30:05;23.77;;;7.57;;
19788;SDS011;10054;59.332;18.244;2023-09-12T05:32:35;12.30;;;6.80;;
19788;SDS011;10054;59.332;18.244;2023-09-12T05:35:04;6.77;;;6.27;;
19788;SDS011;10054;59.332;18.244;2023-09-12T05:37:33;9.33;;;6.80;;
19788;SDS011;10054;59.332;18.244;2023-09-12T05:40:02;21.30;;;6.27;;
19788;SDS011;10054;59.332;18.244;2023-09-12T05:42:32;7.23;;;6.60;;
19788;SDS011;10054;59.332;18.244;2023-09-12T05:45:01;7.00;;;6.50;;
19788;SDS011;10054;59.332;18.244;2023-09-12T05:47:30;7.20;;;6.55;;
19788;SDS011;10054;59.332;18.244;2023-09-12T05:49:59;7.57;;;6.70;;
19788;SDS011;10054;59.332;18.244;2023-09-12T05:52:27;7.58;;;6.78;;
19788;SDS011;10054;59.332;18.244;2023-09-12T05:54:57;110.67;;;8.80;;
19788;SDS011;10054;59.332;18.244;2023-09-12T05:57:26;7.97;;;7.27;;
19788;SDS011;10054;59.332;18.244;2023-09-12T05:59:55;41.13;;;8.10;;
19788;SDS011;10054;59.332;18.244;2023-09-12T06:02:23;24.73;;;8.27;;
19788;SDS011;10054;59.332;18.244;2023-09-12T06:04:52;8.40;;;7.60;;
19788;SDS011;10054;59.332;18.244;2023-09-12T06:07:21;29.50;;;8.53;;
19788;SDS011;10054;59.332;18.244;2023-09-12T06:09:50;35.70;;;8.07;;
19788;SDS011;10054;59.332;18.244;2023-09-12T06:12:19;9.33;;;8.30;;
19788;SDS011;10054;59.332;18.244;2023-09-12T06:14:48;10.13;;;8.58;;
19788;SDS011;10054;59.332;18.244;2023-09-12T06:17:16;9.33;;;8.43;;
19788;SDS011;10054;59.332;18.244;2023-09-12T06:19:46;13.37;;;8.27;;
19788;SDS011;10054;59.332;18.244;2023-09-12T06:22:18;9.93;;;8.93;;
19788;SDS011;10054;59.332;18.244;2023-09-12T06:24:47;12.05;;;9.10;;
19788;SDS011;10054;59.332;18.244;2023-09-12T06:27:16;28.60;;;8.93;;
19788;SDS011;10054;59.332;18.244;2023-09-12T06:29:48;20.20;;;9.08;;
19788;SDS011;10054;59.332;18.244;2023-09-12T06:32:17;11.07;;;8.70;;
19788;SDS011;10054;59.332;18.244;2023-09-12T06:34:46;19.90;;;8.60;;
19788;SDS011;10054;59.332;18.244;2023-09-12T06:37:15;11.23;;;8.47;;
19788;SDS011;10054;59.332;18.244;2023-09-12T06:39:45;9.83;;;8.43;;
19788;SDS011;10054;59.332;18.244;2023-09-12T06:42:18;11.97;;;7.97;;
19788;SDS011;10054;59.332;18.244;2023-09-12T06:44:46;10.40;;;7.17;;
19788;SDS011;10054;59.332;18.244;2023-09-12T06:47:15;8.43;;;7.60;;
19788;SDS011;10054;59.332;18.244;2023-09-12T06:49:44;7.50;;;6.80;;
19788;SDS011;10054;59.332;18.244;2023-09-12T06:52:13;12.37;;;7.13;;
19788;SDS011;10054;59.332;18.244;2023-09-12T06:54:42;8.00;;;7.30;;
19788;SDS011;10054;59.332;18.244;2023-09-12T06:57:11;7.77;;;6.87;;
19788;SDS011;10054;59.332;18.244;2023-09-12T06:59:40;7.47;;;6.87;;
19788;SDS011;10054;59.332;18.244;2023-09-12T07:02:09;7.70;;;7.00;;
19788;SDS011;10054;59.332;18.244;2023-09-12T07:04:39;7.00;;;6.50;;
19788;SDS011;10054;59.332;18.244;2023-09-12T07:07:08;6.97;;;6.37;;
19788;SDS011;10054;59.332;18.244;2023-09-12T07:09:36;6.28;;;5.67;;
19788;SDS011;10054;59.332;18.244;2023-09-12T07:12:06;7.67;;;6.97;;
19788;SDS011;10054;59.332;18.244;2023-09-12T07:14:36;7.30;;;6.60;;
19788;SDS011;10054;59.332;18.244;2023-09-12T07:17:05;8.50;;;7.10;;
19788;SDS011;10054;59.332;18.244;2023-09-12T07:19:34;7.28;;;6.30;;
19788;SDS011;10054;59.332;18.244;2023-09-12T07:22:03;7.30;;;6.57;;
19788;SDS011;10054;59.332;18.244;2023-09-12T07:24:31;6.97;;;6.37;;
19788;SDS011;10054;59.332;18.244;2023-09-12T07:27:00;6.92;;;6.25;;
19788;SDS011;10054;59.332;18.244;2023-09-12T07:29:29;7.03;;;6.43;;
19788;SDS011;10054;59.332;18.244;2023-09-12T07:31:58;7.47;;;6.62;;
19788;SDS011;10054;59.332;18.244;2023-09-12T07:34:27;6.60;;;6.00;;
19788;SDS011;10054;59.332;18.244;2023-09-12T07:36:56;6.80;;;6.20;;
19788;SDS011;10054;59.332;18.244;2023-09-12T07:39:25;6.25;;;5.85;;
19788;SDS011;10054;59.332;18.244;2023-09-12T07:41:54;6.90;;;6.30;;
19788;SDS011;10054;59.332;18.244;2023-09-12T07:44:22;6.72;;;6.12;;
19788;SDS011;10054;59.332;18.244;2023-09-12T07:46:51;6.75;;;6.22;;
19788;SDS011;10054;59.332;18.244;2023-09-12T07:49:20;6.95;;;6.30;;
19788;SDS011;10054;59.332;18.244;2023-09-12T07:51:50;6.90;;;6.30;;
19788;SDS011;10054;59.332;18.244;2023-09-12T07:54:20;7.20;;;6.60;;
19788;SDS011;10054;59.332;18.244;2023-09-12T07:56:49;6.90;;;6.40;;
19788;SDS011;10054;59.332;18.244;2023-09-12T07:59:18;7.35;;;6.65;;
19788;SDS011;10054;59.332;18.244;2023-09-12T08:01:47;7.35;;;6.65;;
19788;SDS011;10054;59.332;18.244;2023-09-12T08:04:15;7.58;;;6.62;;
19788;SDS011;10054;59.332;18.244;2023-09-12T08:06:45;6.85;;;6.35;;
19788;SDS011;10054;59.332;18.244;2023-09-12T08:09:13;6.67;;;6.05;;
19788;SDS011;10054;59.332;18.244;2023-09-12T08:11:43;6.85;;;6.25;;
19788;SDS011;10054;59.332;18.244;2023-09-12T08:14:11;7.55;;;6.85;;
19788;SDS011;10054;59.332;18.244;2023-09-12T08:16:40;6.90;;;6.35;;
19788;SDS011;10054;59.332;18.244;2023-09-12T08:19:09;7.12;;;6.42;;
19788;SDS011;10054;59.332;18.244;2023-09-12T08:21:39;6.92;;;6.15;;
19788;SDS011;10054;59.332;18.244;2023-09-12T08:24:08;7.58;;;6.97;;
19788;SDS011;10054;59.332;18.244;2023-09-12T08:26:37;7.10;;;6.50;;
19788;SDS011;10054;59.332;18.244;2023-09-12T08:29:06;7.55;;;6.95;;
19788;SDS011;10054;59.332;18.244;2023-09-12T08:31:35;8.30;;;7.50;;
19788;SDS011;10054;59.332;18.244;2023-09-12T08:34:04;9.20;;;8.30;;
19788;SDS011;10054;59.332;18.244;2023-09-12T08:36:32;8.33;;;7.53;;
19788;SDS011;10054;59.332;18.244;2023-09-12T08:39:02;8.10;;;7.50;;
19788;SDS011;10054;59.332;18.244;2023-09-12T08:41:33;8.20;;;7.50;;
19788;SDS011;10054;59.332;18.244;2023-09-12T08:44:03;8.90;;;8.05;;
19788;SDS011;10054;59.332;18.244;2023-09-12T08:46:32;10.13;;;9.15;;
19788;SDS011;10054;59.332;18.244;2023-09-12T08:49:01;9.60;;;8.70;;
19788;SDS011;10054;59.332;18.244;2023-09-12T08:51:30;8.40;;;7.70;;
19788;SDS011;10054;59.332;18.244;2023-09-12T08:54:00;9.03;;;8.18;;
19788;SDS011;10054;59.332;18.244;2023-09-12T08:56:31;10.35;;;9.45;;
19788;SDS011;10054;59.332;18.244;2023-09-12T08:59:00;11.85;;;9.50;;
19788;SDS011;10054;59.332;18.244;2023-09-12T09:01:31;10.55;;;9.65;;
19788;SDS011;10054;59.332;18.244;2023-09-12T09:04:02;9.65;;;8.85;;
19788;SDS011;10054;59.332;18.244;2023-09-12T09:06:31;10.40;;;9.43;;
19788;SDS011;10054;59.332;18.244;2023-09-12T09:09:02;11.40;;;10.35;;
19788;SDS011;10054;59.332;18.244;2023-09-12T09:11:34;11.03;;;10.03;;
19788;SDS011;10054;59.332;18.244;2023-09-12T09:14:03;12.80;;;11.48;;
19788;SDS011;10054;59.332;18.244;2023-09-12T09:16:32;12.60;;;11.33;;
19788;SDS011;10054;59.332;18.244;2023-09-12T09:19:03;13.53;;;12.23;;
19788;SDS011;10054;59.332;18.244;2023-09-12T09:21:38;12.93;;;11.73;;
19788;SDS011;10054;59.332;18.244;2023-09-12T09:24:10;13.43;;;12.23;;
19788;SDS011;10054;59.332;18.244;2023-09-12T09:26:50;14.35;;;12.82;;
19788;SDS011;10054;59.332;18.244;2023-09-12T09:29:21;14.18;;;12.78;;
19788;SDS011;10054;59.332;18.244;2023-09-12T09:31:50;14.40;;;12.98;;
19788;SDS011;10054;59.332;18.244;2023-09-12T09:34:20;15.00;;;13.53;;
19788;SDS011;10054;59.332;18.244;2023-09-12T09:36:51;14.55;;;13.18;;
19788;SDS011;10054;59.332;18.244;2023-09-12T09:39:22;16.70;;;13.53;;
19788;SDS011;10054;59.332;18.244;2023-09-12T09:41:58;14.98;;;13.45;;
19788;SDS011;10054;59.332;18.244;2023-09-12T09:44:25;14.50;;;13.00;;
19788;SDS011;10054;59.332;18.244;2023-09-12T09:46:55;15.20;;;13.70;;
19788;SDS011;10054;59.332;18.244;2023-09-12T09:49:34;15.53;;;14.03;;
19788;SDS011;10054;59.332;18.244;2023-09-12T09:52:03;15.43;;;13.80;;
19788;SDS011;10054;59.332;18.244;2023-09-12T09:54:32;16.40;;;14.05;;
19788;SDS011;10054;59.332;18.244;2023-09-12T09:57:00;14.35;;;12.98;;
19788;SDS011;10054;59.332;18.244;2023-09-12T09:59:31;14.93;;;13.53;;
19788;SDS011;10054;59.332;18.244;2023-09-12T10:02:00;16.32;;;14.73;;
19788;SDS011;10054;59.332;18.244;2023-09-12T10:04:49;16.10;;;14.53;;
19788;SDS011;10054;59.332;18.244;2023-09-12T10:07:21;15.15;;;13.75;;
19788;SDS011;10054;59.332;18.244;2023-09-12T10:09:50;16.67;;;14.90;;
19788;SDS011;10054;59.332;18.244;2023-09-12T10:12:19;17.90;;;16.12;;
19788;SDS011;10054;59.332;18.244;2023-09-12T10:14:50;15.55;;;13.93;;
19788;SDS011;10054;59.332;18.244;2023-09-12T10:17:19;14.93;;;13.55;;
19788;SDS011;10054;59.332;18.244;2023-09-12T10:19:55;16.70;;;15.08;;
19788;SDS011;10054;59.332;18.244;2023-09-12T10:22:31;17.00;;;15.28;;
19788;SDS011;10054;59.332;18.244;2023-09-12T10:24:57;16.67;;;14.80;;
19788;SDS011;10054;59.332;18.244;2023-09-12T10:27:28;15.38;;;13.98;;
19788;SDS011;10054;59.332;18.244;2023-09-12T10:29:58;14.87;;;13.58;;
19788;SDS011;10054;59.332;18.244;2023-09-12T10:32:27;19.23;;;15.10;;
19788;SDS011;10054;59.332;18.244;2023-09-12T10:34:58;15.80;;;14.30;;
19788;SDS011;10054;59.332;18.244;2023-09-12T10:37:27;17.98;;;16.27;;
19788;SDS011;10054;59.332;18.244;2023-09-12T10:39:59;17.20;;;15.50;;
19788;SDS011;10054;59.332;18.244;2023-09-12T10:42:31;18.42;;;16.60;;
19788;SDS011;10054;59.332;18.244;2023-09-12T10:45:02;17.65;;;15.95;;
19788;SDS011;10054;59.332;18.244;2023-09-12T10:47:35;18.35;;;16.45;;
19788;SDS011;10054;59.332;18.244;2023-09-12T10:50:06;17.25;;;15.58;;
19788;SDS011;10054;59.332;18.244;2023-09-12T10:52:35;18.67;;;16.73;;
19788;SDS011;10054;59.332;18.244;2023-09-12T10:55:06;20.65;;;18.52;;
19788;SDS011;10054;59.332;18.244;2023-09-12T10:57:36;20.52;;;18.48;;
19788;SDS011;10054;59.332;18.244;2023-09-12T11:02:43;21.90;;;17.65;;
19788;SDS011;10054;59.332;18.244;2023-09-12T11:08:00;19.90;;;17.70;;
19788;SDS011;10054;59.332;18.244;2023-09-12T11:10:32;18.73;;;16.75;;
19788;SDS011;10054;59.332;18.244;2023-09-12T11:13:01;22.80;;;20.32;;
19788;SDS011;10054;59.332;18.244;2023-09-12T11:15:30;21.20;;;19.00;;
19788;SDS011;10054;59.332;18.244;2023-09-12T11:18:04;22.95;;;19.87;;
19788;SDS011;10054;59.332;18.244;2023-09-12T11:20:52;22.75;;;20.35;;
19788;SDS011;10054;59.332;18.244;2023-09-12T11:23:31;24.05;;;21.45;;
19788;SDS011;10054;59.332;18.244;2023-09-12T11:26:05;23.90;;;20.90;;
19788;SDS011;10054;59.332;18.244;2023-09-12T11:28:36;23.73;;;21.30;;
19788;SDS011;10054;59.332;18.244;2023-09-12T11:31:06;24.55;;;22.05;;
19788;SDS011;10054;59.332;18.244;2023-09-12T11:33:35;22.40;;;20.17;;
19788;SDS011;10054;59.332;18.244;2023-09-12T11:36:04;22.13;;;19.70;;
19788;SDS011;10054;59.332;18.244;2023-09-12T11:38:35;22.37;;;20.15;;
19788;SDS011;10054;59.332;18.244;2023-09-12T11:41:03;22.85;;;19.50;;
19788;SDS011;10054;59.332;18.244;2023-09-12T11:43:32;20.57;;;18.50;;
19788;SDS011;10054;59.332;18.244;2023-09-12T11:46:04;21.45;;;19.15;;
19788;SDS011;10054;59.332;18.244;2023-09-12T11:48:35;19.37;;;17.57;;
19788;SDS011;10054;59.332;18.244;2023-09-12T11:51:06;18.35;;;16.55;;
19788;SDS011;10054;59.332;18.244;2023-09-12T11:53:35;17.10;;;15.28;;
19788;SDS011;10054;59.332;18.244;2023-09-12T11:56:04;16.00;;;14.50;;
19788;SDS011;10054;59.332;18.244;2023-09-12T11:58:33;16.00;;;14.47;;
19788;SDS011;10054;59.332;18.244;2023-09-12T12:01:03;16.05;;;14.13;;
19788;SDS011;10054;59.332;18.244;2023-09-12T12:03:32;14.55;;;13.13;;
19788;SDS011;10054;59.332;18.244;2023-09-12T12:06:02;19.07;;;13.48;;
19788;SDS011;10054;59.332;18.244;2023-09-12T12:08:31;15.35;;;13.62;;
19788;SDS011;10054;59.332;18.244;2023-09-12T12:11:00;14.63;;;13.22;;
19788;SDS011;10054;59.332;18.244;2023-09-12T12:13:29;13.68;;;12.37;;
19788;SDS011;10054;59.332;18.244;2023-09-12T12:15:59;14.38;;;13.08;;
19788;SDS011;10054;59.332;18.244;2023-09-12T12:18:30;14.87;;;13.38;;
19788;SDS011;10054;59.332;18.244;2023-09-12T12:20:58;13.78;;;12.47;;
19788;SDS011;10054;59.332;18.244;2023-09-12T12:23:27;15.23;;;13.62;;
19788;SDS011;10054;59.332;18.244;2023-09-12T12:25:56;15.08;;;13.58;;
19788;SDS011;10054;59.332;18.244;2023-09-12T12:28:26;14.93;;;13.15;;
19788;SDS011;10054;59.332;18.244;2023-09-12T12:30:55;13.43;;;12.23;;
19788;SDS011;10054;59.332;18.244;2023-09-12T12:33:25;13.32;;;11.60;;
19788;SDS011;10054;59.332;18.244;2023-09-12T12:38:32;13.18;;;12.07;;
19788;SDS011;10054;59.332;18.244;2023-09-12T12:41:02;12.75;;;11.50;;
19788;SDS011;10054;59.332;18.244;2023-09-12T12:43:31;12.73;;;11.45;;
19788;SDS011;10054;59.332;18.244;2023-09-12T12:46:00;14.00;;;10.60;;
19788;SDS011;10054;59.332;18.244;2023-09-12T12:48:35;12.10;;;11.00;;
19788;SDS011;10054;59.332;18.244;2023-09-12T12:51:12;13.00;;;11.70;;
19788;SDS011;10054;59.332;18.244;2023-09-12T12:53:49;12.13;;;10.68;;
19788;SDS011;10054;59.332;18.244;2023-09-12T12:56:27;11.70;;;10.45;;
19788;SDS011;10054;59.332;18.244;2023-09-12T12:58:59;15.18;;;11.43;;
19788;SDS011;10054;59.332;18.244;2023-09-12T13:01:30;11.90;;;10.78;;
19788;SDS011;10054;59.332;18.244;2023-09-12T13:03:59;11.75;;;10.75;;
19788;SDS011;10054;59.332;18.244;2023-09-12T13:06:28;12.93;;;11.30;;
19788;SDS011;10054;59.332;18.244;2023-09-12T13:08:57;12.13;;;10.93;;
19788;SDS011;10054;59.332;18.244;2023-09-12T13:11:28;11.78;;;10.68;;
19788;SDS011;10054;59.332;18.244;2023-09-12T13:13:57;11.15;;;10.15;;
19788;SDS011;10054;59.332;18.244;2023-09-12T13:16:26;12.00;;;10.98;;
19788;SDS011;10054;59.332;18.244;2023-09-12T13:18:56;12.00;;;10.88;;
19788;SDS011;10054;59.332;18.244;2023-09-12T13:21:25;12.30;;;11.05;;
19788;SDS011;10054;59.332;18.244;2023-09-12T13:23:54;12.23;;;11.18;;
19788;SDS011;10054;59.332;18.244;2023-09-12T13:26:23;11.85;;;10.82;;
19788;SDS011;10054;59.332;18.244;2023-09-12T13:28:52;12.07;;;11.00;;
19788;SDS011;10054;59.332;18.244;2023-09-12T13:31:21;12.88;;;11.75;;
19788;SDS011;10054;59.332;18.244;2023-09-12T13:33:49;13.15;;;11.20;;
19788;SDS011;10054;59.332;18.244;2023-09-12T13:36:18;12.95;;;11.70;;
19788;SDS011;10054;59.332;18.244;2023-09-12T13:38:47;13.32;;;12.13;;
19788;SDS011;10054;59.332;18.244;2023-09-12T13:41:17;13.58;;;11.73;;
19788;SDS011;10054;59.332;18.244;2023-09-12T13:43:48;13.78;;;12.53;;
19788;SDS011;10054;59.332;18.244;2023-09-12T13:46:17;17.73;;;12.68;;
19788;SDS011;10054;59.332;18.244;2023-09-12T13:48:45;14.58;;;11.60;;
19788;SDS011;10054;59.332;18.244;2023-09-12T13:51:14;12.85;;;11.65;;
19788;SDS011;10054;59.332;18.244;2023-09-12T13:53:43;13.20;;;11.88;;
19788;SDS011;10054;59.332;18.244;2023-09-12T13:56:12;13.35;;;12.20;;
19788;SDS011;10054;59.332;18.244;2023-09-12T13:58:41;13.05;;;11.70;;
19788;SDS011;10054;59.332;18.244;2023-09-12T14:01:10;13.78;;;12.37;;
19788;SDS011;10054;59.332;18.244;2023-09-12T14:03:38;13.78;;;12.58;;
19788;SDS011;10054;59.332;18.244;2023-09-12T14:06:08;13.68;;;12.37;;
19788;SDS011;10054;59.332;18.244;2023-09-12T14:08:37;13.08;;;11.80;;
19788;SDS011;10054;59.332;18.244;2023-09-12T14:11:05;12.35;;;11.15;;
19788;SDS011;10054;59.332;18.244;2023-09-12T14:13:34;13.28;;;12.07;;
19788;SDS011;10054;59.332;18.244;2023-09-12T14:16:03;13.40;;;12.30;;
19788;SDS011;10054;59.332;18.244;2023-09-12T14:18:32;14.28;;;12.43;;
19788;SDS011;10054;59.332;18.244;2023-09-12T14:21:00;13.40;;;12.10;;
19788;SDS011;10054;59.332;18.244;2023-09-12T14:23:29;12.80;;;11.60;;
19788;SDS011;10054;59.332;18.244;2023-09-12T14:25:58;14.13;;;11.55;;
19788;SDS011;10054;59.332;18.244;2023-09-12T14:28:26;14.00;;;12.60;;
19788;SDS011;10054;59.332;18.244;2023-09-12T14:30:57;13.98;;;12.47;;
19788;SDS011;10054;59.332;18.244;2023-09-12T14:33:25;15.63;;;12.40;;
19788;SDS011;10054;59.332;18.244;2023-09-12T14:35:54;13.32;;;12.03;;
19788;SDS011;10054;59.332;18.244;2023-09-12T14:38:23;13.03;;;11.55;;
19788;SDS011;10054;59.332;18.244;2023-09-12T14:40:52;12.28;;;11.08;;
19788;SDS011;10054;59.332;18.244;2023-09-12T14:43:21;12.40;;;11.18;;